createdAt,value
2019-03-12T00:00:31.097Z,73.19
2019-03-12T00:01:31.040Z,73.50
2019-03-12T00:02:31.036Z,73.19
2019-03-12T00:03:31.040Z,73.08
2019-03-12T00:04:31.009Z,73.19
2019-03-12T00:05:31.009Z,72.77
2019-03-12T00:06:31.014Z,72.88
2019-03-12T00:07:30.977Z,72.88
2019-03-12T00:08:30.968Z,73.11
2019-03-12T00:09:30.954Z,73.11
2019-03-12T00:10:30.946Z,73.74
2019-03-12T00:11:31.078Z,73.32
2019-03-12T00:12:30.920Z,73.53
2019-03-12T00:13:30.911Z,73.32
2019-03-12T00:14:30.905Z,72.88
2019-03-12T00:15:30.891Z,73.32
2019-03-12T00:16:30.898Z,73.43
2019-03-12T00:17:30.879Z,73.63
2019-03-12T00:18:30.858Z,73.43
2019-03-12T00:19:30.848Z,73.22
2019-03-12T00:20:30.834Z,73.43
2019-03-12T00:21:30.847Z,73.74
2019-03-12T00:22:30.816Z,73.94
2019-03-12T00:23:30.819Z,73.63
2019-03-12T00:24:30.792Z,73.53
2019-03-12T00:25:30.782Z,73.94
2019-03-12T00:26:30.789Z,73.84
2019-03-12T00:27:30.763Z,73.84
2019-03-12T00:28:30.759Z,73.53
2019-03-12T00:29:30.751Z,74.15
2019-03-12T00:30:30.730Z,73.74
2019-03-12T00:31:30.744Z,74.05
2019-03-12T00:32:30.712Z,73.63
2019-03-12T00:33:30.698Z,73.84
2019-03-12T00:34:30.690Z,73.94
2019-03-12T00:35:30.721Z,73.84
2019-03-12T00:36:30.695Z,73.53
2019-03-12T00:37:30.656Z,74.15
2019-03-12T00:38:30.651Z,73.43
2019-03-12T00:39:30.634Z,73.53
2019-03-12T00:40:30.623Z,73.32
2019-03-12T00:41:30.632Z,73.11
2019-03-12T00:42:30.618Z,73.53
2019-03-12T00:43:30.591Z,73.32
2019-03-12T00:44:30.583Z,73.50
2019-03-12T00:45:30.570Z,74.26
2019-03-12T00:46:30.576Z,73.63
2019-03-12T00:47:30.551Z,73.74
2019-03-12T00:48:30.557Z,73.53
2019-03-12T00:49:30.527Z,74.15
2019-03-12T00:50:30.520Z,73.77
2019-03-12T00:51:30.526Z,73.88
2019-03-12T00:52:30.492Z,73.57
2019-03-12T00:53:30.486Z,73.67
2019-03-12T00:54:30.488Z,73.98
2019-03-12T00:55:30.460Z,73.67
2019-03-12T00:56:30.469Z,73.77
2019-03-12T00:57:30.463Z,75.12
2019-03-12T00:58:30.432Z,74.71
2019-03-12T00:59:30.423Z,75.36
2019-03-12T01:00:30.431Z,75.57
2019-03-12T01:01:30.418Z,75.71
2019-03-12T01:02:30.402Z,75.40
2019-03-12T01:03:30.392Z,75.71
2019-03-12T01:04:30.366Z,75.50
2019-03-12T01:05:30.353Z,76.23
2019-03-12T01:06:30.381Z,76.64
2019-03-12T01:07:30.335Z,76.85
2019-03-12T01:08:30.329Z,77.06
2019-03-12T01:09:30.309Z,76.23
2019-03-12T01:10:30.321Z,76.95
2019-03-12T01:11:30.308Z,76.85
2019-03-12T01:12:30.277Z,77.37
2019-03-12T01:13:30.286Z,77.09
2019-03-12T01:14:30.262Z,77.40
2019-03-12T01:15:30.247Z,77.95
2019-03-12T01:16:30.254Z,77.64
2019-03-12T01:17:30.234Z,77.92
2019-03-12T01:18:30.214Z,77.72
2019-03-12T01:19:30.225Z,77.82
2019-03-12T01:20:30.196Z,77.82
2019-03-12T01:21:30.204Z,77.61
2019-03-12T01:22:30.170Z,77.72
2019-03-12T01:23:30.173Z,77.47
2019-03-12T01:24:30.152Z,77.16
2019-03-12T01:25:30.215Z,77.16
2019-03-12T01:26:30.146Z,77.06
2019-03-12T01:27:30.120Z,76.12
2019-03-12T01:28:30.112Z,75.81
2019-03-12T01:29:30.106Z,76.02
2019-03-12T01:30:30.091Z,75.57
2019-03-12T01:31:30.113Z,75.46
2019-03-12T01:32:30.065Z,75.05
2019-03-12T01:33:30.055Z,75.32
2019-03-12T01:34:30.046Z,74.91
2019-03-12T01:35:30.038Z,74.40
2019-03-12T01:36:30.125Z,74.40
2019-03-12T01:37:30.028Z,74.50
2019-03-12T01:38:30.001Z,73.88
2019-03-12T01:39:29.990Z,73.77
2019-03-12T01:40:29.980Z,73.67
2019-03-12T01:41:30.004Z,73.57
2019-03-12T01:42:29.958Z,74.08
2019-03-12T01:43:29.967Z,72.94
2019-03-12T01:44:29.938Z,72.94
2019-03-12T01:45:29.926Z,72.94
2019-03-12T01:46:29.915Z,73.25
2019-03-12T01:47:29.930Z,72.94
2019-03-12T01:48:29.893Z,72.84
2019-03-12T01:49:29.897Z,73.15
2019-03-12T01:50:29.871Z,72.84
2019-03-12T01:51:31.172Z,72.94
2019-03-12T01:52:29.874Z,73.46
2019-03-12T01:53:29.838Z,73.15
2019-03-12T01:54:29.828Z,73.25
2019-03-12T01:55:29.836Z,73.05
2019-03-12T01:56:29.806Z,73.15
2019-03-12T01:57:29.816Z,72.91
2019-03-12T01:58:29.805Z,73.25
2019-03-12T01:59:29.775Z,73.15
2019-03-12T02:00:29.769Z,72.94
2019-03-12T02:01:29.774Z,73.36
2019-03-12T02:02:29.766Z,73.25
2019-03-12T02:03:29.744Z,72.63
2019-03-12T02:04:29.756Z,72.94
2019-03-12T02:05:29.733Z,72.74
2019-03-12T02:06:29.700Z,72.84
2019-03-12T02:07:29.708Z,72.74
2019-03-12T02:08:29.698Z,73.25
2019-03-12T02:09:29.669Z,73.28
2019-03-12T02:10:29.656Z,73.39
2019-03-12T02:11:29.661Z,73.49
2019-03-12T02:12:29.658Z,74.46
2019-03-12T02:13:29.625Z,75.33
2019-03-12T02:14:29.621Z,75.09
2019-03-12T02:15:29.602Z,75.29
2019-03-12T02:16:29.592Z,74.67
2019-03-12T02:17:29.617Z,75.64
2019-03-12T02:18:29.572Z,76.78
2019-03-12T02:19:29.560Z,76.78
2019-03-12T02:20:29.555Z,76.99
2019-03-12T02:21:29.540Z,77.12
2019-03-12T02:22:29.551Z,77.33
2019-03-12T02:23:29.547Z,77.23
2019-03-12T02:24:29.526Z,76.92
2019-03-12T02:25:29.496Z,76.85
2019-03-12T02:26:29.487Z,77.16
2019-03-12T02:27:29.501Z,77.26
2019-03-12T02:28:29.463Z,77.78
2019-03-12T02:29:29.451Z,77.89
2019-03-12T02:30:29.447Z,77.37
2019-03-12T02:31:29.454Z,77.26
2019-03-12T02:32:29.446Z,77.16
2019-03-12T02:33:29.413Z,76.95
2019-03-12T02:34:29.398Z,76.95
2019-03-12T02:35:29.439Z,76.95
2019-03-12T02:36:29.378Z,76.95
2019-03-12T02:37:29.403Z,77.23
2019-03-12T02:38:29.362Z,77.23
2019-03-12T02:39:29.350Z,77.12
2019-03-12T02:40:29.335Z,76.19
2019-03-12T02:41:29.323Z,76.19
2019-03-12T02:42:29.344Z,75.88
2019-03-12T02:43:29.319Z,75.15
2019-03-12T02:44:29.297Z,74.74
2019-03-12T02:45:29.286Z,75.26
2019-03-12T02:46:29.269Z,74.98
2019-03-12T02:47:29.280Z,75.71
2019-03-12T02:48:29.250Z,76.12
2019-03-12T02:49:29.249Z,75.71
2019-03-12T02:50:29.234Z,75.29
2019-03-12T02:51:29.216Z,75.60
2019-03-12T02:52:29.230Z,74.95
2019-03-12T02:53:29.196Z,75.36
2019-03-12T02:54:29.193Z,74.63
2019-03-12T02:55:29.207Z,74.32
2019-03-12T02:56:29.212Z,73.91
2019-03-12T02:57:29.180Z,73.70
2019-03-12T02:58:29.142Z,74.05
2019-03-12T02:59:29.131Z,73.60
2019-03-12T03:00:29.136Z,73.91
2019-03-12T03:01:29.109Z,74.32
2019-03-12T03:02:29.119Z,74.01
2019-03-12T03:03:29.113Z,74.01
2019-03-12T03:04:29.076Z,74.01
2019-03-12T03:05:29.070Z,73.91
2019-03-12T03:06:29.058Z,73.74
2019-03-12T03:07:29.067Z,73.94
2019-03-12T03:08:29.094Z,73.74
2019-03-12T03:09:29.023Z,73.53
2019-03-12T03:10:29.016Z,73.32
2019-03-12T03:11:29.001Z,73.32
2019-03-12T03:12:29.036Z,73.22
2019-03-12T03:13:28.980Z,73.00
2019-03-12T03:14:28.982Z,73.18
2019-03-12T03:15:28.958Z,73.70
2019-03-12T03:16:28.971Z,73.49
2019-03-12T03:17:28.957Z,73.94
2019-03-12T03:18:28.937Z,74.05
2019-03-12T03:19:28.938Z,74.01
2019-03-12T03:20:28.927Z,74.26
2019-03-12T03:21:28.893Z,73.80
2019-03-12T03:22:28.906Z,74.01
2019-03-12T03:23:28.872Z,73.70
2019-03-12T03:24:28.864Z,72.97
2019-03-12T03:25:28.874Z,73.08
2019-03-12T03:26:28.870Z,73.91
2019-03-12T03:27:29.644Z,74.15
2019-03-12T03:28:28.853Z,73.80
2019-03-12T03:29:28.828Z,74.15
2019-03-12T03:30:28.816Z,73.00
2019-03-12T03:31:28.796Z,73.43
2019-03-12T03:32:28.797Z,73.22
2019-03-12T03:33:29.020Z,72.90
2019-03-12T03:34:29.173Z,72.80
2019-03-12T03:35:28.751Z,73.18
2019-03-12T03:36:28.731Z,72.77
2019-03-12T03:37:28.737Z,72.87
2019-03-12T03:38:28.727Z,72.45
2019-03-12T03:39:28.700Z,72.56
2019-03-12T03:40:28.814Z,71.94
2019-03-12T03:41:28.680Z,72.25
2019-03-12T03:42:28.664Z,72.25
2019-03-12T03:43:28.748Z,72.25
2019-03-12T03:44:28.658Z,72.56
2019-03-12T03:45:28.633Z,72.45
2019-03-12T03:46:28.626Z,72.45
2019-03-12T03:47:28.619Z,71.83
2019-03-12T03:48:28.623Z,71.83
2019-03-12T03:49:28.593Z,71.83
2019-03-12T03:50:28.603Z,71.73
2019-03-12T03:51:28.565Z,71.62
2019-03-12T03:52:28.556Z,71.62
2019-03-12T03:53:28.579Z,71.21
2019-03-12T03:54:28.536Z,72.22
2019-03-12T03:55:28.532Z,72.84
2019-03-12T03:56:28.561Z,72.25
2019-03-12T03:57:28.527Z,71.83
2019-03-12T03:58:28.528Z,71.94
2019-03-12T03:59:28.481Z,72.45
2019-03-12T04:00:28.489Z,71.91
2019-03-12T04:01:28.463Z,71.59
2019-03-12T04:02:28.448Z,72.25
2019-03-12T04:03:28.473Z,72.32
2019-03-12T04:04:28.429Z,72.45
2019-03-12T04:05:28.416Z,72.42
2019-03-12T04:06:28.407Z,72.63
2019-03-12T04:07:28.400Z,72.11
2019-03-12T04:08:28.428Z,72.35
2019-03-12T04:09:28.402Z,72.04
2019-03-12T04:10:28.366Z,72.77
2019-03-12T04:11:28.361Z,72.25
2019-03-12T04:12:28.343Z,72.35
2019-03-12T04:13:28.352Z,72.35
2019-03-12T04:14:28.327Z,72.01
2019-03-12T04:15:28.316Z,72.01
2019-03-12T04:16:28.302Z,72.01
2019-03-12T04:17:28.286Z,72.11
2019-03-12T04:18:28.302Z,72.22
2019-03-12T04:19:28.265Z,72.35
2019-03-12T04:20:28.264Z,72.22
2019-03-12T04:21:28.254Z,71.80
2019-03-12T04:22:28.237Z,71.52
2019-03-12T04:23:28.260Z,71.18
2019-03-12T04:24:28.210Z,71.28
2019-03-12T04:25:28.200Z,71.39
2019-03-12T04:26:28.189Z,71.80
2019-03-12T04:27:28.181Z,71.70
2019-03-12T04:28:28.191Z,71.59
2019-03-12T04:29:28.180Z,71.28
2019-03-12T04:30:28.152Z,71.14
2019-03-12T04:31:28.136Z,70.94
2019-03-12T04:32:28.125Z,71.14
2019-03-12T04:33:28.141Z,70.83
2019-03-12T04:34:28.102Z,71.35
2019-03-12T04:35:28.104Z,71.25
2019-03-12T04:36:28.084Z,71.25
2019-03-12T04:37:28.074Z,70.73
2019-03-12T04:38:28.083Z,70.80
2019-03-12T04:39:28.048Z,71.14
2019-03-12T04:40:28.041Z,71.01
2019-03-12T04:41:28.044Z,70.73
2019-03-12T04:42:28.017Z,70.42
2019-03-12T04:43:28.026Z,70.52
2019-03-12T04:44:27.996Z,70.94
2019-03-12T04:45:27.990Z,71.25
2019-03-12T04:46:27.974Z,71.25
2019-03-12T04:47:27.989Z,71.45
2019-03-12T04:48:27.970Z,71.25
2019-03-12T04:49:27.943Z,71.45
2019-03-12T04:50:27.931Z,71.42
2019-03-12T04:51:27.919Z,71.14
2019-03-12T04:52:27.908Z,71.56
2019-03-12T04:53:27.932Z,71.22
2019-03-12T04:54:27.893Z,71.35
2019-03-12T04:55:27.886Z,71.35
2019-03-12T04:56:27.865Z,71.53
2019-03-12T04:57:27.853Z,71.56
2019-03-12T04:58:27.866Z,71.56
2019-03-12T04:59:27.848Z,71.63
2019-03-12T05:00:27.828Z,71.42
2019-03-12T05:01:27.813Z,71.22
2019-03-12T05:02:27.812Z,71.32
2019-03-12T05:03:27.808Z,71.63
2019-03-12T05:04:27.780Z,71.56
2019-03-12T05:05:27.785Z,71.66
2019-03-12T05:06:27.784Z,71.84
2019-03-12T05:07:27.749Z,71.94
2019-03-12T05:08:27.758Z,71.73
2019-03-12T05:09:27.726Z,71.53
2019-03-12T05:10:27.714Z,71.22
2019-03-12T05:11:27.709Z,71.91
2019-03-12T05:12:30.502Z,71.70
2019-03-12T05:13:27.683Z,71.84
2019-03-12T05:14:27.694Z,71.49
2019-03-12T05:15:27.673Z,71.91
2019-03-12T05:16:27.650Z,71.32
2019-03-12T05:17:27.642Z,71.59
2019-03-12T05:18:27.648Z,71.94
2019-03-12T05:19:27.638Z,71.84
2019-03-12T05:20:27.609Z,72.05
2019-03-12T05:21:27.597Z,72.15
2019-03-12T05:22:27.590Z,72.36
2019-03-12T05:23:27.578Z,72.56
2019-03-12T05:24:27.600Z,72.56
2019-03-12T05:25:27.558Z,72.77
2019-03-12T05:26:27.543Z,72.77
2019-03-12T05:27:27.533Z,72.67
2019-03-12T05:28:27.526Z,72.77
2019-03-12T05:29:27.536Z,72.67
2019-03-12T05:30:27.508Z,72.67
2019-03-12T05:31:27.498Z,72.63
2019-03-12T05:32:27.481Z,72.63
2019-03-12T05:33:27.469Z,72.84
2019-03-12T05:34:27.478Z,72.84
2019-03-12T05:35:27.451Z,72.84
2019-03-12T05:36:27.437Z,73.05
2019-03-12T05:37:27.442Z,73.05
2019-03-12T05:38:27.449Z,72.84
2019-03-12T05:39:27.433Z,72.84
2019-03-12T05:40:27.393Z,73.05
2019-03-12T05:41:27.387Z,73.25
2019-03-12T05:42:27.371Z,72.84
2019-03-12T05:43:27.444Z,73.15
2019-03-12T05:44:27.372Z,72.94
2019-03-12T05:45:27.343Z,73.36
2019-03-12T05:46:27.329Z,72.91
2019-03-12T05:47:27.323Z,73.25
2019-03-12T05:48:27.308Z,72.94
2019-03-12T05:49:27.387Z,73.25
2019-03-12T05:50:27.288Z,73.11
2019-03-12T05:51:27.275Z,73.32
2019-03-12T05:52:27.267Z,72.91
2019-03-12T05:53:27.273Z,73.53
2019-03-12T05:54:27.266Z,72.81
2019-03-12T05:55:27.239Z,73.53
2019-03-12T05:56:27.222Z,73.22
2019-03-12T05:57:27.212Z,73.32
2019-03-12T05:58:27.201Z,73.43
2019-03-12T05:59:27.213Z,73.11
2019-03-12T06:00:27.183Z,72.71
2019-03-12T06:01:27.173Z,73.22
2019-03-12T06:02:27.178Z,73.11
2019-03-12T06:03:27.149Z,72.81
2019-03-12T06:04:27.157Z,72.77
2019-03-12T06:05:27.129Z,72.67
2019-03-12T06:06:27.121Z,72.67
2019-03-12T06:07:27.112Z,73.08
2019-03-12T06:08:27.111Z,72.56
2019-03-12T06:09:30.455Z,72.64
2019-03-12T06:10:27.081Z,72.53
2019-03-12T06:11:27.069Z,72.46
2019-03-12T06:12:27.066Z,72.53
2019-03-12T06:13:27.049Z,72.67
2019-03-12T06:14:27.069Z,72.53
2019-03-12T06:15:27.023Z,72.74
2019-03-12T06:16:27.011Z,72.67
2019-03-12T06:17:27.004Z,72.74
2019-03-12T06:18:26.989Z,72.85
2019-03-12T06:19:27.046Z,72.67
2019-03-12T06:20:26.971Z,72.67
2019-03-12T06:21:26.954Z,72.64
2019-03-12T06:22:26.944Z,72.64
2019-03-12T06:23:26.939Z,72.43
2019-03-12T06:24:26.958Z,72.05
2019-03-12T06:25:26.924Z,71.73
2019-03-12T06:26:26.936Z,72.02
2019-03-12T06:27:26.893Z,71.81
2019-03-12T06:28:26.889Z,71.81
2019-03-12T06:29:26.936Z,71.50
2019-03-12T06:30:26.862Z,71.60
2019-03-12T06:31:26.854Z,71.50
2019-03-12T06:32:26.846Z,71.60
2019-03-12T06:33:26.830Z,71.60
2019-03-12T06:34:26.893Z,71.39
2019-03-12T06:35:26.864Z,71.70
2019-03-12T06:36:26.796Z,71.50
2019-03-12T06:37:26.788Z,71.60
2019-03-12T06:38:26.779Z,71.70
2019-03-12T06:39:26.788Z,71.63
2019-03-12T06:40:26.756Z,71.84
2019-03-12T06:41:26.746Z,72.12
2019-03-12T06:42:26.729Z,71.81
2019-03-12T06:43:26.728Z,72.05
2019-03-12T06:44:26.755Z,72.02
2019-03-12T06:45:26.699Z,72.02
2019-03-12T06:46:26.688Z,71.60
2019-03-12T06:47:26.681Z,71.39
2019-03-12T06:48:26.668Z,71.70
2019-03-12T06:49:26.683Z,71.08
2019-03-12T06:50:26.648Z,71.08
2019-03-12T06:51:26.637Z,71.70
2019-03-12T06:52:26.625Z,71.53
2019-03-12T06:53:26.656Z,71.70
2019-03-12T06:54:26.638Z,71.63
2019-03-12T06:55:26.592Z,72.05
2019-03-12T06:56:26.590Z,72.15
2019-03-12T06:57:26.570Z,71.81
2019-03-12T06:58:26.568Z,72.05
2019-03-12T06:59:26.558Z,72.12
2019-03-12T07:00:26.572Z,71.70
2019-03-12T07:01:26.528Z,71.70
2019-03-12T07:02:26.528Z,71.60
2019-03-12T07:03:26.527Z,71.50
2019-03-12T07:04:26.501Z,71.08
2019-03-12T07:05:26.504Z,70.87
2019-03-12T07:06:26.481Z,71.08
2019-03-12T07:07:26.462Z,70.74
2019-03-12T07:08:26.459Z,70.77
2019-03-12T07:09:26.464Z,70.47
2019-03-12T07:10:26.452Z,70.98
2019-03-12T07:11:26.422Z,71.19
2019-03-12T07:12:26.416Z,71.36
2019-03-12T07:13:26.400Z,71.08
2019-03-12T07:14:26.427Z,71.19
2019-03-12T07:15:26.405Z,70.64
2019-03-12T07:16:26.371Z,70.53
2019-03-12T07:17:26.391Z,70.53
2019-03-12T07:18:26.346Z,70.81
2019-03-12T07:19:26.359Z,70.22
2019-03-12T07:20:26.466Z,70.92
2019-03-12T07:21:26.355Z,69.88
2019-03-12T07:22:26.309Z,70.81
2019-03-12T07:23:26.303Z,69.67
2019-03-12T07:24:26.313Z,70.81
2019-03-12T07:25:26.297Z,70.50
2019-03-12T07:26:26.295Z,70.81
2019-03-12T07:27:26.251Z,69.64
2019-03-12T07:28:26.241Z,69.78
2019-03-12T07:29:26.264Z,69.64
2019-03-12T07:30:26.256Z,69.74
2019-03-12T07:31:26.440Z,69.85
2019-03-12T07:32:26.232Z,69.74
2019-03-12T07:33:26.192Z,70.26
2019-03-12T07:34:36.120Z,69.85
2019-03-12T07:35:27.193Z,69.51
2019-03-12T07:36:26.153Z,70.23
2019-03-12T07:37:26.143Z,69.61
2019-03-12T07:38:26.146Z,69.09
2019-03-12T07:39:26.123Z,68.27
2019-03-12T07:40:26.152Z,68.27
2019-03-12T07:41:32.309Z,68.13
2019-03-12T07:42:27.088Z,68.16
2019-03-12T07:43:26.082Z,68.44
2019-03-12T07:44:26.108Z,68.13
2019-03-12T07:45:26.083Z,67.93
2019-03-12T07:46:26.047Z,68.03
2019-03-12T07:47:35.244Z,67.61
2019-03-12T07:48:27.032Z,67.93
2019-03-12T07:49:26.018Z,67.61
2019-03-12T07:50:26.032Z,67.61
2019-03-12T07:51:25.997Z,67.82
2019-03-12T07:52:25.988Z,68.13
2019-03-12T07:53:25.986Z,67.72
2019-03-12T07:54:25.964Z,67.93
2019-03-12T07:55:25.994Z,67.58
2019-03-12T07:56:25.954Z,66.97
2019-03-12T07:57:25.943Z,67.38
2019-03-12T07:58:35.133Z,67.48
2019-03-12T07:59:26.944Z,67.48
2019-03-12T08:00:25.925Z,66.86
2019-03-12T08:01:25.894Z,66.24
2019-03-12T08:02:25.876Z,66.42
2019-03-12T08:03:25.866Z,66.21
2019-03-12T08:04:25.883Z,65.28
2019-03-12T08:05:28.301Z,65.42
2019-03-12T08:06:25.835Z,65.28
2019-03-12T08:07:25.840Z,66.31
2019-03-12T08:08:25.818Z,65.91
2019-03-12T08:09:25.811Z,65.18
2019-03-12T08:10:25.828Z,65.28
2019-03-12T08:11:25.799Z,65.15
2019-03-12T08:12:25.773Z,65.25
2019-03-12T08:13:25.765Z,64.22
2019-03-12T08:14:27.021Z,64.36
2019-03-12T08:15:25.767Z,64.77
2019-03-12T08:16:25.729Z,65.18
2019-03-12T08:17:25.731Z,65.80
2019-03-12T08:18:25.708Z,65.91
2019-03-12T08:19:25.703Z,66.01
2019-03-12T08:20:25.722Z,65.56
2019-03-12T08:21:25.675Z,65.15
2019-03-12T08:22:25.668Z,65.08
2019-03-12T08:23:25.658Z,65.25
2019-03-12T08:24:25.672Z,64.43
2019-03-12T08:25:25.657Z,64.43
2019-03-12T08:26:25.624Z,64.29
2019-03-12T08:27:26.260Z,63.78
2019-03-12T08:28:25.604Z,63.78
2019-03-12T08:29:25.599Z,64.29
2019-03-12T08:30:25.617Z,63.68
2019-03-12T08:31:25.573Z,63.57
2019-03-12T08:32:25.563Z,63.45
2019-03-12T08:33:25.567Z,63.47
2019-03-12T08:34:25.540Z,63.89
2019-03-12T08:35:25.539Z,63.78
2019-03-12T08:36:25.543Z,63.37
2019-03-12T08:37:25.512Z,63.68
2019-03-12T08:38:25.506Z,63.65
2019-03-12T08:39:25.501Z,63.85
2019-03-12T08:40:25.514Z,63.47
2019-03-12T08:41:25.488Z,63.24
2019-03-12T08:42:25.461Z,63.13
2019-03-12T08:43:25.452Z,62.82
2019-03-12T08:44:26.460Z,62.85
2019-03-12T08:45:25.435Z,63.03
2019-03-12T08:46:25.461Z,62.82
2019-03-12T08:47:25.407Z,61.98
2019-03-12T08:48:25.409Z,61.87
2019-03-12T08:49:25.388Z,61.43
2019-03-12T08:50:25.377Z,61.33
2019-03-12T08:51:25.393Z,61.40
2019-03-12T08:52:25.363Z,60.17
2019-03-12T08:53:25.356Z,60.27
2019-03-12T08:54:25.347Z,59.86
2019-03-12T08:55:25.323Z,59.86
2019-03-12T08:56:25.337Z,58.73
2019-03-12T08:57:25.315Z,59.14
2019-03-12T08:58:25.296Z,58.93
2019-03-12T08:59:25.291Z,59.03
2019-03-12T09:00:25.272Z,59.24
2019-03-12T09:01:25.288Z,59.24
2019-03-12T09:02:25.254Z,59.24
2019-03-12T09:03:25.244Z,59.14
2019-03-12T09:04:25.254Z,58.93
2019-03-12T09:05:25.247Z,58.93
2019-03-12T09:06:25.243Z,58.31
2019-03-12T09:07:25.198Z,58.42
2019-03-12T09:08:25.256Z,58.18
2019-03-12T09:09:25.210Z,57.98
2019-03-12T09:10:25.168Z,58.08
2019-03-12T09:11:25.206Z,58.06
2019-03-12T09:12:25.154Z,58.16
2019-03-12T09:13:25.139Z,57.21
2019-03-12T09:14:25.130Z,57.41
2019-03-12T09:15:25.114Z,56.36
2019-03-12T09:16:25.142Z,56.59
2019-03-12T09:17:25.093Z,56.36
2019-03-12T09:18:25.089Z,56.36
2019-03-12T09:19:25.073Z,56.02
2019-03-12T09:20:25.062Z,55.87
2019-03-12T09:21:25.072Z,55.05
2019-03-12T09:22:25.042Z,54.85
2019-03-12T09:23:25.061Z,54.41
2019-03-12T09:24:25.022Z,54.53
2019-03-12T09:25:25.011Z,54.53
2019-03-12T09:26:25.056Z,54.21
2019-03-12T09:27:24.987Z,54.18
2019-03-12T09:28:24.986Z,53.69
2019-03-12T09:29:24.966Z,54.21
2019-03-12T09:30:24.959Z,54.74
2019-03-12T09:31:24.968Z,54.44
2019-03-12T09:32:24.948Z,54.74
2019-03-12T09:33:24.923Z,54.85
2019-03-12T09:34:24.912Z,55.18
2019-03-12T09:35:24.901Z,55.21
2019-03-12T09:36:24.946Z,55.74
2019-03-12T09:37:24.880Z,55.82
2019-03-12T09:38:24.874Z,55.82
2019-03-12T09:39:24.866Z,56.05
2019-03-12T09:40:24.848Z,55.59
2019-03-12T09:41:24.878Z,54.97
2019-03-12T09:42:24.829Z,54.95
2019-03-12T09:43:24.813Z,54.85
2019-03-12T09:44:24.805Z,54.21
2019-03-12T09:45:24.794Z,52.97
2019-03-12T09:46:24.803Z,53.44
2019-03-12T09:47:24.776Z,52.62
2019-03-12T09:48:24.782Z,52.95
2019-03-12T09:49:27.329Z,53.18
2019-03-12T09:50:24.742Z,54.23
2019-03-12T09:51:24.746Z,54.85
2019-03-12T09:52:24.726Z,54.95
2019-03-12T09:53:24.702Z,54.85
2019-03-12T09:54:24.693Z,54.85
2019-03-12T09:55:24.684Z,54.36
2019-03-12T09:56:24.772Z,55.30
2019-03-12T09:57:24.661Z,55.41
2019-03-12T09:58:24.648Z,55.23
2019-03-12T09:59:24.639Z,55.33
2019-03-12T10:00:24.626Z,55.57
2019-03-12T10:01:24.653Z,55.87
2019-03-12T10:02:24.605Z,55.36
2019-03-12T10:03:24.596Z,55.26
2019-03-12T10:04:24.719Z,55.08
2019-03-12T10:05:24.575Z,55.66
2019-03-12T10:06:24.583Z,55.36
2019-03-12T10:07:24.550Z,55.26
2019-03-12T10:08:24.542Z,55.46
2019-03-12T10:09:24.538Z,55.36
2019-03-12T10:10:24.524Z,55.15
2019-03-12T10:11:24.512Z,54.00
2019-03-12T10:12:24.531Z,53.92
2019-03-12T10:13:24.485Z,54.02
2019-03-12T10:14:24.478Z,53.72
2019-03-12T10:15:24.472Z,53.10
2019-03-12T10:16:24.456Z,52.71
2019-03-12T10:17:24.476Z,53.12
2019-03-12T10:18:24.434Z,54.05
2019-03-12T10:19:24.424Z,53.45
2019-03-12T10:20:24.597Z,53.35
2019-03-12T10:21:24.401Z,53.25
2019-03-12T10:22:24.495Z,52.81
2019-03-12T10:23:24.427Z,53.02
2019-03-12T10:24:24.368Z,53.23
2019-03-12T10:25:24.373Z,53.72
2019-03-12T10:26:24.347Z,53.00
2019-03-12T10:27:24.364Z,53.20
2019-03-12T10:28:24.328Z,52.59
2019-03-12T10:29:24.314Z,52.48
2019-03-12T10:30:24.304Z,52.17
2019-03-12T10:31:24.293Z,52.25
2019-03-12T10:32:24.303Z,52.36
2019-03-12T10:33:24.281Z,51.64
2019-03-12T10:34:29.710Z,52.12
2019-03-12T10:35:25.259Z,51.07
2019-03-12T10:36:24.337Z,50.15
2019-03-12T10:37:24.249Z,50.44
2019-03-12T10:38:24.221Z,48.80
2019-03-12T10:39:24.206Z,48.90
2019-03-12T10:40:24.197Z,49.69
2019-03-12T10:41:24.184Z,48.77
2019-03-12T10:42:24.211Z,48.73
2019-03-12T10:43:24.164Z,48.52
2019-03-12T10:44:24.151Z,48.73
2019-03-12T10:45:24.146Z,48.71
2019-03-12T10:46:24.132Z,48.11
2019-03-12T10:47:24.137Z,49.67
2019-03-12T10:48:24.119Z,48.96
2019-03-12T10:49:36.645Z,49.06
2019-03-12T10:50:25.130Z,48.85
2019-03-12T10:51:24.093Z,49.08
2019-03-12T10:52:24.098Z,50.29
2019-03-12T10:53:24.056Z,48.96
2019-03-12T10:54:24.052Z,49.11
2019-03-12T10:55:24.034Z,48.81
2019-03-12T10:56:24.028Z,48.50
2019-03-12T10:57:24.081Z,48.50
2019-03-12T10:58:24.000Z,48.91
2019-03-12T10:59:24.003Z,48.44
2019-03-12T11:00:23.991Z,48.55
2019-03-12T11:01:23.968Z,49.80
2019-03-12T11:02:23.972Z,49.18
2019-03-12T11:03:23.940Z,49.80
2019-03-12T11:04:23.945Z,49.26
2019-03-12T11:05:23.969Z,48.42
2019-03-12T11:06:23.908Z,48.11
2019-03-12T11:07:23.923Z,47.40
2019-03-12T11:08:23.885Z,48.24
2019-03-12T11:09:23.886Z,47.68
2019-03-12T11:10:23.867Z,46.59
2019-03-12T11:11:23.870Z,44.24
2019-03-12T11:12:23.888Z,45.65
2019-03-12T11:13:23.835Z,44.22
2019-03-12T11:14:23.821Z,44.65
2019-03-12T11:15:23.805Z,44.65
2019-03-12T11:16:23.819Z,45.59
2019-03-12T11:17:23.826Z,46.23
2019-03-12T11:18:23.795Z,46.44
2019-03-12T11:19:23.765Z,47.25
2019-03-12T11:20:23.754Z,46.72
2019-03-12T11:21:23.739Z,46.64
2019-03-12T11:22:23.747Z,46.44
2019-03-12T11:23:23.716Z,46.45
2019-03-12T11:24:23.709Z,46.82
2019-03-12T11:25:27.865Z,46.08
2019-03-12T11:26:23.684Z,45.47
2019-03-12T11:27:23.696Z,45.86
2019-03-12T11:28:26.654Z,45.59
2019-03-12T11:29:23.648Z,45.59
2019-03-12T11:30:23.639Z,45.90
2019-03-12T11:31:23.640Z,44.98
2019-03-12T11:32:23.637Z,45.49
2019-03-12T11:33:23.620Z,45.35
2019-03-12T11:34:23.602Z,45.08
2019-03-12T11:35:23.581Z,46.12
2019-03-12T11:36:23.573Z,46.76
2019-03-12T11:37:23.601Z,46.89
2019-03-12T11:38:23.563Z,47.27
2019-03-12T11:39:23.538Z,47.50
2019-03-12T11:40:23.561Z,47.81
2019-03-12T11:41:23.516Z,47.56
2019-03-12T11:42:23.541Z,46.84
2019-03-12T11:43:23.503Z,46.53
2019-03-12T11:44:23.487Z,46.41
2019-03-12T11:45:35.563Z,46.11
2019-03-12T11:46:24.464Z,46.64
2019-03-12T11:47:23.488Z,46.53
2019-03-12T11:48:23.457Z,46.74
2019-03-12T11:49:23.427Z,46.08
2019-03-12T11:50:23.464Z,44.92
2019-03-12T11:51:23.407Z,44.51
2019-03-12T11:52:23.393Z,44.38
2019-03-12T11:53:23.417Z,44.84
2019-03-12T11:54:23.399Z,44.94
2019-03-12T11:55:23.368Z,43.75
2019-03-12T11:56:23.348Z,43.65
2019-03-12T11:57:23.363Z,44.10
2019-03-12T11:58:23.353Z,44.10
2019-03-12T11:59:23.330Z,44.12
2019-03-12T12:00:23.340Z,44.53
2019-03-12T12:01:23.308Z,43.51
2019-03-12T12:02:23.281Z,44.37
2019-03-12T12:03:23.297Z,44.57
2019-03-12T12:04:23.259Z,44.45
2019-03-12T12:05:23.253Z,44.47
2019-03-12T12:06:23.247Z,44.67
2019-03-12T12:07:23.240Z,44.47
2019-03-12T12:08:23.265Z,44.65
2019-03-12T12:09:23.217Z,44.14
2019-03-12T12:10:23.192Z,44.24
2019-03-12T12:11:23.185Z,44.32
2019-03-12T12:12:23.172Z,44.32
2019-03-12T12:13:23.199Z,44.65
2019-03-12T12:14:23.153Z,44.55
2019-03-12T12:15:23.150Z,46.23
2019-03-12T12:16:23.126Z,44.49
2019-03-12T12:17:23.129Z,44.49
2019-03-12T12:18:23.134Z,45.82
2019-03-12T12:19:23.099Z,46.35
2019-03-12T12:20:29.567Z,46.33
2019-03-12T12:21:24.071Z,46.74
2019-03-12T12:22:23.068Z,46.35
2019-03-12T12:23:23.094Z,46.78
2019-03-12T12:24:23.045Z,46.68
2019-03-12T12:25:23.037Z,46.78
2019-03-12T12:26:23.016Z,46.89
2019-03-12T12:27:23.004Z,46.81
2019-03-12T12:28:23.014Z,46.78
2019-03-12T12:29:22.985Z,46.58
2019-03-12T12:30:23.073Z,46.48
2019-03-12T12:31:22.986Z,46.58
2019-03-12T12:32:22.965Z,46.07
2019-03-12T12:33:22.958Z,46.78
2019-03-12T12:34:22.925Z,46.35
2019-03-12T12:35:22.920Z,46.37
2019-03-12T12:36:22.902Z,46.35
2019-03-12T12:37:22.892Z,46.27
2019-03-12T12:38:22.920Z,46.07
2019-03-12T12:39:22.868Z,45.86
2019-03-12T12:40:22.861Z,46.15
2019-03-12T12:41:22.847Z,46.86
2019-03-12T12:42:22.834Z,46.25
2019-03-12T12:43:22.849Z,45.64
2019-03-12T12:44:22.820Z,46.03
2019-03-12T12:45:22.814Z,46.44
2019-03-12T12:46:22.793Z,46.12
2019-03-12T12:47:22.896Z,45.92
2019-03-12T12:48:22.802Z,45.84
2019-03-12T12:49:22.794Z,45.61
2019-03-12T12:50:22.918Z,44.82
2019-03-12T12:51:22.741Z,46.15
2019-03-12T12:52:22.724Z,45.84